Main page
METAR-TAF:

METAR-TAF

Airports :

Baghdad International Airport

Baghdad, Iraq

latitude: 33-15-45N, longitude: 44-14-04E, elevation: 35 m

Current weather observation

The report was made 9 minutes ago, at 21:00 UTC
Wind 9 kt from the North/Northeast
Temperature 25°C
Humidity 32%
Pressure 1015 hPa
Visibility 10 km or more
no clouds below 1500 m and no cumulonimbus

METAR: ORBI 282100Z 03009KT CAVOK 25/07 Q1015 NOSIG

Time: 00:09 (21:09 UTC)

Forecast

The report was made 11 hours and 9 minutes ago, at 10:00 UTC
Forecast valid from 28 at 12 UTC to 29 at 12 UTC
Wind 8 kt from the East/Southeast
Visibility: 8000 m
Scattered clouds at a height of 5000 ft
Temporary
from 28 at 22 UTC to 29 at 08 UTC
Visibility: 6000 m
Scattered clouds at a height of 3000 ft
Scattered clouds at a height of 8000 ft
light rain showers

TAF: ORBI 281000Z 2812/2912 12008KT 8000 SCT050 TEMPO 2822/2908 6000 -SHRA SCT030 SCT080

Weather observations and forecasts of more than 4000 airports (METAR and TAF reports).

The available stations are represented by yellow and red dots on the map.

Hover mouse over dot to see the name of the station.

Then click to see weather observations and forecasts.

To change the map : click on the green buttons with a black cross to zoom in, on the green button with a dash to zoom out, or on the green arrows for adjacent maps.


METAR-TAF: